Time;durP1;ratioP1;P1;durP2;ratioP2;P2;SDS_P1;SDS_P2;PMS_P1;PMS_P2;Temp;Humidity;BMP_temperature;BMP_pressure;BME280_temperature;BME280_humidity;BME280_pressure;Samples;Min_cycle;Max_cycle;Signal;HPM_P1;HPM_P2
2023/04/24 00:43:40;;;;;;;24.05;14.02;;;13.10;99.90;;;;;;5481963;23;20082;-92
2023/04/24 00:46:07;;;;;;;22.30;13.90;;;13.10;99.90;;;;;;4956216;28;20027;-89
2023/04/24 00:48:34;;;;;;;22.60;14.48;;;13.10;99.90;;;;;;4940675;29;20170;-90
2023/04/24 00:51:01;;;;;;;23.67;14.82;;;13.10;99.90;;;;;;4956778;28;20023;-91
2023/04/24 00:53:27;;;;;;;24.00;14.90;;;13.20;99.90;;;;;;4940821;28;20039;-92
2023/04/24 00:55:54;;;;;;;25.13;14.60;;;13.20;99.90;;;;;;4956725;28;20039;-90
2023/04/24 00:58:21;;;;;;;27.27;15.43;;;13.30;99.90;;;;;;4940693;28;20024;-92
2023/04/24 01:00:52;;;;;;;23.27;14.35;;;13.30;99.90;;;;;;4940750;29;20392;-92
2023/04/24 01:03:26;;;;;;;22.20;14.23;;;13.30;99.90;;;;;;4940653;28;20424;-91
2023/04/24 01:05:54;;;;;;;24.27;15.23;;;13.30;99.90;;;;;;4956489;28;20448;-91
2023/04/24 01:08:26;;;;;;;25.88;15.45;;;13.30;99.90;;;;;;4940432;28;20038;-91
2023/04/24 01:10:54;;;;;;;23.33;15.45;;;13.40;99.90;;;;;;4940478;28;20059;-89
2023/04/24 01:13:21;;;;;;;25.15;15.73;;;13.40;99.90;;;;;;4956116;28;20385;-90
2023/04/24 01:15:48;;;;;;;26.40;16.35;;;13.50;99.90;;;;;;4940306;29;20059;-89
2023/04/24 01:18:15;;;;;;;27.80;17.35;;;13.50;99.90;;;;;;4956144;28;20027;-91
2023/04/24 01:20:44;;;;;;;29.35;16.98;;;13.60;99.90;;;;;;4940366;29;20043;-89
2023/04/24 01:23:11;;;;;;;33.95;17.50;;;13.70;99.90;;;;;;4956250;28;20031;-90
2023/04/24 01:25:38;;;;;;;28.58;17.25;;;13.80;99.90;;;;;;4940145;29;20024;-91
2023/04/24 01:28:05;;;;;;;29.48;17.75;;;13.90;99.90;;;;;;4940075;28;20037;-90
2023/04/24 01:30:31;;;;;;;32.00;18.60;;;13.90;99.90;;;;;;4942888;29;20027;-91
2023/04/24 01:32:59;;;;;;;36.53;18.48;;;14.00;99.90;;;;;;4940357;28;20046;-91
2023/04/24 01:35:26;;;;;;;31.90;18.40;;;14.00;99.90;;;;;;4940010;28;20035;-89
2023/04/24 01:37:53;;;;;;;37.40;19.95;;;14.00;99.90;;;;;;4940551;28;20047;-91
2023/04/24 01:40:20;;;;;;;27.63;17.92;;;14.10;99.90;;;;;;4956304;28;20066;-89
2023/04/24 01:42:46;;;;;;;33.58;18.50;;;14.20;99.90;;;;;;4939713;29;20444;-91
2023/04/24 01:45:13;;;;;;;34.97;19.95;;;14.20;99.90;;;;;;4955918;28;20110;-90
2023/04/24 01:47:40;;;;;;;30.42;19.58;;;14.20;99.90;;;;;;4939753;28;20031;-92
2023/04/24 01:50:07;;;;;;;32.15;18.50;;;14.30;99.90;;;;;;4939840;29;20551;-89
2023/04/24 01:52:35;;;;;;;27.50;17.42;;;14.30;99.90;;;;;;4939677;29;20054;-90
2023/04/24 01:55:06;;;;;;;26.67;17.75;;;14.30;99.90;;;;;;4939451;29;20497;-90
2023/04/24 01:57:33;;;;;;;31.88;18.33;;;14.20;99.90;;;;;;4954741;28;20027;-90
2023/04/24 02:00:00;;;;;;;33.28;17.98;;;14.30;99.90;;;;;;4939433;29;20038;-91
2023/04/24 02:02:29;;;;;;;24.80;16.00;;;14.30;99.90;;;;;;4936310;29;20500;-91
2023/04/24 02:04:57;;;;;;;28.98;17.60;;;14.30;99.90;;;;;;4938977;29;20028;-89
2023/04/24 02:07:24;;;;;;;28.90;17.45;;;14.30;99.90;;;;;;4921876;29;20088;-91
2023/04/24 02:09:51;;;;;;;25.58;15.98;;;14.30;99.90;;;;;;4936789;29;20044;-91
2023/04/24 02:12:18;;;;;;;30.58;16.67;;;14.30;99.90;;;;;;4936382;29;20481;-93
2023/04/24 02:14:44;;;;;;;29.52;15.57;;;14.30;99.90;;;;;;4935950;29;20095;-90
2023/04/24 02:17:12;;;;;;;29.92;16.02;;;14.30;99.90;;;;;;4936126;29;20038;-89
2023/04/24 02:19:39;;;;;;;33.40;16.88;;;14.30;99.90;;;;;;4920439;29;20035;-90
2023/04/24 02:22:05;;;;;;;23.92;15.13;;;14.30;99.90;;;;;;4936344;29;20087;-90
2023/04/24 02:24:34;;;;;;;25.05;15.73;;;14.30;99.90;;;;;;4936284;29;20495;-91
2023/04/24 02:27:02;;;;;;;26.08;15.23;;;14.30;99.90;;;;;;4935915;29;20070;-90
2023/04/24 02:29:30;;;;;;;31.00;14.95;;;14.40;99.90;;;;;;4935998;29;20032;-90
2023/04/24 02:31:57;;;;;;;23.52;15.43;;;14.30;99.90;;;;;;4936005;29;20489;-90
2023/04/24 02:34:24;;;;;;;25.52;14.15;;;14.30;99.90;;;;;;4935825;29;20493;-90
2023/04/24 02:36:51;;;;;;;25.17;15.60;;;14.30;99.90;;;;;;4935940;29;20489;-90
2023/04/24 02:39:18;;;;;;;27.42;15.90;;;14.30;99.90;;;;;;4935868;29;20028;-90
2023/04/24 02:41:45;;;;;;;26.35;15.10;;;14.30;99.90;;;;;;4936003;29;20024;-91
2023/04/24 02:44:11;;;;;;;29.17;13.85;;;14.30;99.90;;;;;;4935616;29;20052;-92
2023/04/24 02:46:41;;;;;;;28.70;14.95;;;14.40;99.90;;;;;;4935899;29;20032;-89
2023/04/24 02:49:07;;;;;;;20.80;14.18;;;14.30;99.90;;;;;;4935921;29;20032;-91
2023/04/24 02:51:34;;;;;;;27.15;15.27;;;14.30;99.90;;;;;;4935724;29;20039;-90
2023/04/24 02:54:00;;;;;;;23.85;14.85;;;14.40;99.90;;;;;;4919902;29;20079;-92
2023/04/24 02:56:27;;;;;;;24.65;14.80;;;14.30;99.90;;;;;;4935764;29;20034;-92
2023/04/24 02:58:54;;;;;;;26.40;15.55;;;14.40;99.90;;;;;;4920058;29;20123;-92
2023/04/24 03:01:21;;;;;;;36.88;16.08;;;14.40;99.90;;;;;;4943132;29;20031;-93
2023/04/24 03:03:49;;;;;;;27.98;15.35;;;14.30;99.90;;;;;;4938969;29;20027;-93
2023/04/24 03:06:15;;;;;;;24.63;14.52;;;14.40;99.90;;;;;;4938904;29;20090;-91
2023/04/24 03:08:42;;;;;;;34.25;15.73;;;14.40;99.90;;;;;;4940539;29;20102;-92
2023/04/24 03:11:11;;;;;;;25.25;14.48;;;14.40;99.90;;;;;;4946267;29;20031;-91
2023/04/24 03:13:37;;;;;;;26.83;15.20;;;14.40;99.90;;;;;;4942730;29;20046;-91
2023/04/24 03:16:05;;;;;;;24.10;15.00;;;14.40;99.90;;;;;;4942603;29;20086;-90
2023/04/24 03:18:31;;;;;;;27.77;15.27;;;14.40;99.90;;;;;;4942579;29;20028;-90
2023/04/24 03:20:59;;;;;;;23.48;14.98;;;14.40;99.90;;;;;;4942614;29;20046;-91
2023/04/24 03:23:26;;;;;;;23.58;13.48;;;14.40;99.90;;;;;;4942441;29;20047;-91
2023/04/24 03:25:53;;;;;;;28.38;15.32;;;14.50;99.90;;;;;;4942281;29;20031;-92
2023/04/24 03:28:20;;;;;;;22.67;14.23;;;14.50;99.90;;;;;;4942348;29;20058;-91
2023/04/24 03:31:04;;;;;;;;;;;14.50;99.90;;;;;;4944988;29;20059;-92
2023/04/24 03:33:35;;;;;;;28.48;14.75;;;14.40;99.90;;;;;;4957984;28;19918;-91
2023/04/24 03:36:03;;;;;;;29.77;15.10;;;14.50;99.90;;;;;;4942010;28;20027;-92
2023/04/24 03:38:37;;;;;;;27.70;14.48;;;14.50;99.90;;;;;;4943227;29;20020;-92
2023/04/24 03:41:30;;;;;;;30.33;15.10;;;14.50;99.90;;;;;;4948012;29;20031;-93
2023/04/24 03:44:09;;;;;;;33.13;15.88;;;14.50;99.90;;;;;;4943416;29;20051;-90
2023/04/24 03:46:37;;;;;;;29.90;15.18;;;14.60;99.90;;;;;;4942045;29;20035;-91
2023/04/24 03:49:03;;;;;;;25.80;15.30;;;14.60;99.90;;;;;;4941954;29;20027;-89
2023/04/24 03:51:34;;;;;;;29.15;15.35;;;14.60;99.90;;;;;;4942402;29;20050;-90
2023/04/24 03:54:10;;;;;;;28.98;14.63;;;14.60;99.90;;;;;;4942951;29;20110;-90
2023/04/24 03:56:39;;;;;;;27.48;14.90;;;14.60;99.90;;;;;;4942392;29;20166;-90
2023/04/24 03:59:06;;;;;;;30.05;15.00;;;14.60;99.90;;;;;;4928676;29;20031;-90
2023/04/24 04:01:37;;;;;;;32.70;15.50;;;14.70;99.90;;;;;;4938607;29;20035;-92
2023/04/24 04:04:14;;;;;;;27.95;15.02;;;14.70;99.90;;;;;;4922539;29;20110;-90
2023/04/24 04:06:43;;;;;;;30.25;15.40;;;14.70;99.90;;;;;;4938280;29;20024;-91
2023/04/24 04:09:10;;;;;;;27.05;15.13;;;14.70;99.90;;;;;;4938387;29;20400;-91
2023/04/24 04:11:37;;;;;;;28.35;15.27;;;14.70;99.90;;;;;;4938282;29;20110;-90
2023/04/24 04:14:05;;;;;;;28.17;14.90;;;14.80;99.90;;;;;;4938225;29;20044;-90
2023/04/24 04:16:33;;;;;;;21.95;13.85;;;14.80;99.90;;;;;;4938128;29;20400;-90
2023/04/24 04:19:03;;;;;;;29.15;14.18;;;14.90;99.90;;;;;;4938093;29;20087;-92
2023/04/24 04:21:31;;;;;;;28.52;14.10;;;14.90;99.90;;;;;;4937633;29;20548;-91
2023/04/24 04:24:09;;;;;;;23.80;13.02;;;15.00;99.90;;;;;;4938071;28;20028;-93
2023/04/24 04:26:46;;;;;;;23.98;13.55;;;15.10;99.90;;;;;;4938039;29;20036;-90
2023/04/24 04:29:22;;;;;;;28.08;13.27;;;15.10;99.90;;;;;;4937988;29;20036;-90
2023/04/24 04:31:52;;;;;;;26.33;12.93;;;15.10;99.90;;;;;;4938131;29;20082;-91
2023/04/24 04:34:19;;;;;;;21.30;13.10;;;15.30;99.90;;;;;;4939569;29;20032;-90
2023/04/24 04:36:46;;;;;;;28.23;13.40;;;15.30;99.90;;;;;;4919551;29;20128;-91
2023/04/24 04:39:36;;;;;;;22.40;12.60;;;15.40;99.90;;;;;;4937416;29;20039;-90
2023/04/24 04:42:06;;;;;;;20.55;11.07;;;15.50;99.90;;;;;;4922506;29;20591;-89
2023/04/24 04:44:40;;;;;;;18.35;10.82;;;15.70;99.90;;;;;;4920965;29;20043;-92
2023/04/24 04:47:12;;;;;;;21.95;10.68;;;15.70;99.90;;;;;;4921064;29;20031;-91
2023/04/24 04:49:41;;;;;;;20.65;10.52;;;15.70;99.90;;;;;;4921130;29;20036;-91
2023/04/24 04:52:17;;;;;;;17.38;10.00;;;15.90;99.90;;;;;;4920973;29;20075;-90
2023/04/24 04:54:46;;;;;;;16.60;9.65;;;16.10;99.90;;;;;;4920971;29;20054;-94
2023/04/24 04:57:13;;;;;;;23.55;10.43;;;16.10;99.90;;;;;;4921184;29;20063;-91
2023/04/24 04:59:40;;;;;;;13.10;9.45;;;16.20;99.90;;;;;;4920958;29;20111;-92
2023/04/24 05:02:13;;;;;;;16.02;8.98;;;16.10;99.90;;;;;;4920834;29;20047;-91
2023/04/24 05:04:40;;;;;;;20.67;9.70;;;16.20;99.90;;;;;;4921031;29;20046;-92
2023/04/24 05:07:06;;;;;;;14.18;8.57;;;16.20;99.90;;;;;;4921497;29;20132;-91
2023/04/24 05:09:37;;;;;;;17.98;8.75;;;16.40;99.90;;;;;;4920639;29;20047;-91
2023/04/24 05:12:07;;;;;;;20.40;9.05;;;16.50;99.90;;;;;;4920807;29;20031;-91
2023/04/24 05:14:39;;;;;;;18.00;9.63;;;16.50;99.90;;;;;;4920585;29;20038;-91
2023/04/24 05:17:06;;;;;;;13.48;8.55;;;16.40;99.90;;;;;;4931903;29;20035;-91
2023/04/24 05:19:35;;;;;;;13.93;8.98;;;16.40;99.90;;;;;;4936957;29;20032;-90
2023/04/24 05:22:04;;;;;;;20.92;10.23;;;16.40;99.90;;;;;;4921337;29;20032;-92
2023/04/24 05:24:34;;;;;;;17.50;8.93;;;16.60;99.90;;;;;;4937613;29;20047;-90
2023/04/24 05:27:18;;;;;;;22.00;9.93;;;16.80;99.90;;;;;;4951675;29;20038;-90
2023/04/24 05:29:45;;;;;;;21.00;7.93;;;17.40;99.90;;;;;;4940103;29;20023;-90
2023/04/24 05:32:12;;;;;;;41.90;12.73;;;18.70;99.90;;;;;;4940081;29;20396;-93
2023/04/24 05:34:38;;;;;;;32.83;14.05;;;19.50;99.90;;;;;;4940217;29;20094;-92
2023/04/24 05:37:08;;;;;;;20.60;15.23;;;20.60;99.90;;;;;;4940044;29;20031;-90
2023/04/24 05:39:35;;;;;;;19.33;14.15;;;21.00;99.90;;;;;;4939896;29;20033;-91
2023/04/24 05:42:03;;;;;;;16.17;14.50;;;21.30;99.90;;;;;;4939906;29;20046;-91
2023/04/24 05:44:29;;;;;;;17.60;15.52;;;21.90;99.90;;;;;;4939571;29;20413;-91
2023/04/24 05:46:56;;;;;;;17.25;15.65;;;22.00;99.90;;;;;;4939794;29;20126;-91
2023/04/24 05:49:24;;;;;;;18.10;16.27;;;21.90;99.90;;;;;;4939898;29;20041;-90
2023/04/24 05:51:50;;;;;;;20.27;17.40;;;21.80;99.90;;;;;;4940062;29;20051;-91
2023/04/24 05:54:18;;;;;;;19.73;16.50;;;21.40;99.90;;;;;;4940231;29;20043;-90
2023/04/24 05:56:44;;;;;;;18.33;16.58;;;20.60;99.90;;;;;;4931730;29;20020;-91
2023/04/24 05:59:19;;;;;;;18.00;16.38;;;20.60;99.90;;;;;;4937374;29;20038;-92
2023/04/24 06:01:46;;;;;;;18.48;16.15;;;20.10;99.90;;;;;;4936360;29;20118;-92
2023/04/24 06:04:19;;;;;;;22.05;16.10;;;19.40;99.90;;;;;;4937920;28;20474;-90
2023/04/24 06:06:50;;;;;;;17.45;15.65;;;19.10;99.90;;;;;;4938328;29;20035;-90
2023/04/24 06:09:18;;;;;;;21.85;16.40;;;19.00;99.90;;;;;;4936333;29;20036;-91
2023/04/24 06:11:45;;;;;;;18.23;16.00;;;19.40;99.90;;;;;;4936293;29;20027;-92
2023/04/24 06:14:14;;;;;;;17.40;15.88;;;19.90;99.90;;;;;;4946196;29;20071;-90
2023/04/24 06:17:07;;;;;;;18.58;16.95;;;20.80;99.90;;;;;;4955415;28;20035;-90
2023/04/24 06:19:38;;;;;;;18.35;16.80;;;21.60;99.90;;;;;;4940229;29;20436;-92
2023/04/24 06:22:05;;;;;;;18.92;17.25;;;22.00;99.90;;;;;;4939286;29;20037;-91
2023/04/24 06:24:31;;;;;;;20.23;18.40;;;22.20;99.90;;;;;;4939447;29;20123;-92
2023/04/24 06:26:59;;;;;;;20.25;18.42;;;22.60;99.90;;;;;;4939369;29;20031;-92
2023/04/24 06:29:27;;;;;;;19.70;17.58;;;22.60;99.90;;;;;;4939122;29;20054;-92
2023/04/24 06:31:53;;;;;;;19.73;17.90;;;22.20;99.90;;;;;;4939165;29;20034;-93
2023/04/24 06:34:20;;;;;;;19.63;17.95;;;22.80;99.90;;;;;;4939167;29;20519;-93
2023/04/24 06:36:47;;;;;;;20.50;18.45;;;22.50;99.90;;;;;;4939208;29;20389;-91
2023/04/24 06:39:14;;;;;;;19.45;17.98;;;22.40;99.90;;;;;;4939212;29;20031;-94
2023/04/24 06:41:41;;;;;;;20.70;18.45;;;22.80;99.90;;;;;;4939073;29;20400;-91
2023/04/24 06:44:09;;;;;;;20.73;18.85;;;22.90;99.90;;;;;;4941643;29;20059;-91
2023/04/24 06:46:36;;;;;;;19.88;18.17;;;22.30;99.90;;;;;;4943082;29;20488;-91
2023/04/24 06:49:02;;;;;;;19.73;17.83;;;21.90;99.90;;;;;;4943280;29;20035;-92
2023/04/24 06:51:30;;;;;;;18.48;17.00;;;21.40;99.90;;;;;;4942911;29;20035;-93
2023/04/24 06:53:57;;;;;;;19.98;18.20;;;21.00;99.90;;;;;;4942837;29;20039;-93
2023/04/24 06:56:23;;;;;;;20.63;18.48;;;21.30;99.90;;;;;;4942961;29;20504;-91
2023/04/24 06:58:50;;;;;;;20.55;18.38;;;21.70;99.90;;;;;;4942798;29;20090;-91
2023/04/24 07:01:17;;;;;;;24.63;18.75;;;22.10;99.90;;;;;;4943102;29;20499;-92
2023/04/24 07:03:44;;;;;;;20.02;18.10;;;22.70;99.90;;;;;;4942955;29;20031;-93
2023/04/24 07:06:11;;;;;;;20.27;18.30;;;22.60;99.90;;;;;;4942747;29;20034;-91
2023/04/24 07:08:37;;;;;;;20.60;18.60;;;22.70;99.90;;;;;;4942662;29;20027;-91
2023/04/24 07:11:05;;;;;;;20.55;18.48;;;23.00;99.90;;;;;;4942779;29;20034;-92
2023/04/24 07:13:32;;;;;;;21.27;17.45;;;22.60;99.90;;;;;;4942512;29;20031;-90
2023/04/24 07:16:01;;;;;;;19.63;17.77;;;21.70;99.90;;;;;;4942567;29;20114;-91
2023/04/24 07:18:28;;;;;;;19.70;17.98;;;21.90;99.90;;;;;;4942419;29;20027;-91
2023/04/24 07:20:55;;;;;;;19.02;17.52;;;21.70;99.90;;;;;;4942354;29;20031;-91
2023/04/24 07:23:21;;;;;;;19.10;17.45;;;22.10;99.90;;;;;;4942200;28;20031;-93
2023/04/24 07:25:47;;;;;;;19.55;18.05;;;22.40;99.90;;;;;;4942364;29;20113;-91
2023/04/24 07:28:14;;;;;;;19.00;17.50;;;23.20;99.90;;;;;;4942502;29;20104;-92
2023/04/24 07:30:41;;;;;;;19.85;17.83;;;22.10;99.90;;;;;;4942471;29;20023;-92
2023/04/24 07:33:11;;;;;;;20.70;18.42;;;21.30;99.90;;;;;;4942246;29;20396;-93
2023/04/24 07:35:37;;;;;;;20.33;18.17;;;21.40;99.90;;;;;;4944500;29;20028;-92
2023/04/24 18:33:08;;;;;;;21.58;18.92;;;16.80;99.90;;;;;;4990061;23;20491;-93
2023/04/24 18:35:35;;;;;;;19.88;17.98;;;16.80;99.90;;;;;;4958545;28;20289;-91
2023/04/24 18:38:01;;;;;;;22.83;18.45;;;16.80;99.90;;;;;;4958863;28;20034;-90
2023/04/24 18:40:28;;;;;;;20.10;18.15;;;16.80;99.90;;;;;;4957840;28;20038;-90
2023/04/24 18:42:55;;;;;;;21.77;18.75;;;16.70;99.90;;;;;;4974363;28;20031;-90
2023/04/24 18:45:22;;;;;;;21.83;19.63;;;16.70;99.90;;;;;;4960519;28;20479;-90
2023/04/24 18:47:49;;;;;;;23.60;21.02;;;16.70;99.90;;;;;;4958530;28;20022;-91
2023/04/24 18:50:15;;;;;;;22.73;20.40;;;16.60;99.90;;;;;;4957995;28;20042;-91
2023/04/24 18:52:42;;;;;;;22.25;19.98;;;16.60;99.90;;;;;;4958116;28;20027;-93
2023/04/24 18:55:09;;;;;;;22.33;20.13;;;16.60;99.90;;;;;;4974495;28;20046;-93
2023/04/24 18:57:35;;;;;;;28.67;19.92;;;16.50;99.90;;;;;;4958361;28;20022;-92
2023/04/24 19:00:03;;;;;;;21.65;19.45;;;16.50;99.90;;;;;;4974127;28;20036;-92
2023/04/24 19:02:29;;;;;;;22.50;19.13;;;16.50;99.90;;;;;;4958200;28;20114;-91
2023/04/24 19:04:56;;;;;;;20.77;19.13;;;16.40;99.90;;;;;;4973951;28;20046;-91
2023/04/24 19:07:23;;;;;;;20.80;18.63;;;16.30;99.90;;;;;;4958053;28;20488;-91
2023/04/24 19:09:52;;;;;;;21.65;18.98;;;16.20;99.90;;;;;;4974938;28;20030;-93
2023/04/24 19:12:25;;;;;;;20.20;18.17;;;16.10;99.90;;;;;;4974907;28;20027;-94
2023/04/24 19:14:54;;;;;;;21.52;19.30;;;16.10;99.90;;;;;;4975021;28;20110;-92
2023/04/24 19:17:23;;;;;;;22.48;20.08;;;16.10;99.90;;;;;;4959207;28;20031;-91
2023/04/24 19:19:51;;;;;;;20.02;18.20;;;16.10;99.90;;;;;;4975221;28;20042;-89
2023/04/24 19:22:19;;;;;;;25.63;19.60;;;16.20;99.90;;;;;;4958801;28;20069;-93
2023/04/24 19:24:46;;;;;;;20.58;18.35;;;16.20;99.90;;;;;;4975029;28;20098;-92
2023/04/24 19:27:12;;;;;;;19.77;18.08;;;16.20;99.90;;;;;;4957771;28;20484;-90
2023/04/24 19:29:40;;;;;;;18.98;17.38;;;16.20;99.90;;;;;;4973866;28;20129;-92
2023/04/24 19:32:07;;;;;;;25.77;18.10;;;16.20;99.90;;;;;;4957541;28;20407;-93
2023/04/24 19:34:34;;;;;;;20.17;18.00;;;16.20;99.90;;;;;;4957995;28;20066;-91
2023/04/24 19:37:01;;;;;;;18.98;17.15;;;16.20;99.90;;;;;;4957821;28;20027;-91
2023/04/24 19:39:27;;;;;;;25.02;17.98;;;16.20;99.90;;;;;;4973911;28;20039;-91
2023/04/24 19:41:55;;;;;;;25.13;17.50;;;16.10;99.90;;;;;;4957604;28;20026;-91
2023/04/24 19:44:24;;;;;;;20.65;17.48;;;16.20;99.90;;;;;;4973750;28;20078;-92
2023/04/24 19:46:51;;;;;;;19.13;17.05;;;16.20;99.90;;;;;;4957927;28;20019;-93
2023/04/24 19:49:18;;;;;;;30.75;18.42;;;16.20;99.90;;;;;;4956508;28;20027;-92
2023/04/24 19:51:44;;;;;;;19.20;17.20;;;16.20;99.90;;;;;;4961122;28;20023;-93
2023/04/24 19:54:11;;;;;;;24.27;18.13;;;16.20;99.90;;;;;;4977172;28;20097;-91
2023/04/24 19:56:37;;;;;;;25.55;18.17;;;16.30;99.90;;;;;;4961043;28;20440;-92
2023/04/24 19:59:04;;;;;;;29.02;21.15;;;16.30;99.90;;;;;;4977164;28;20027;-92
2023/04/24 20:01:31;;;;;;;22.63;20.00;;;16.30;99.90;;;;;;4943922;28;20023;-92
2023/04/24 20:03:58;;;;;;;23.73;18.92;;;16.20;99.90;;;;;;4957686;28;20055;-90
2023/04/24 20:06:24;;;;;;;24.02;18.13;;;16.20;99.90;;;;;;4957713;29;20092;-91
2023/04/24 20:08:51;;;;;;;29.77;21.10;;;16.20;99.90;;;;;;4957622;28;20030;-91
2023/04/24 20:11:18;;;;;;;22.75;20.30;;;16.20;99.90;;;;;;4966756;28;20036;-93
2023/04/24 20:13:45;;;;;;;22.10;20.02;;;16.30;99.90;;;;;;4957917;28;20031;-93
2023/04/24 20:16:11;;;;;;;22.08;19.77;;;16.20;99.90;;;;;;4957775;28;20046;-90
2023/04/24 20:18:38;;;;;;;25.85;18.75;;;16.30;99.90;;;;;;4957421;28;20023;-91
2023/04/24 20:21:05;;;;;;;21.27;18.08;;;16.40;99.90;;;;;;4957592;28;20037;-92
2023/04/24 20:23:31;;;;;;;20.10;18.10;;;16.40;99.90;;;;;;4941260;28;20122;-91
2023/04/24 20:25:58;;;;;;;20.25;17.70;;;16.40;99.90;;;;;;4941692;28;20065;-92
2023/04/24 20:28:31;;;;;;;22.25;18.05;;;16.40;99.90;;;;;;4941367;28;20020;-90
2023/04/24 20:30:58;;;;;;;18.85;17.13;;;16.40;99.90;;;;;;4941389;28;20060;-91
2023/04/24 20:33:26;;;;;;;19.27;17.40;;;16.30;99.90;;;;;;4958227;28;20038;-92
2023/04/24 20:35:53;;;;;;;19.58;17.50;;;16.30;99.90;;;;;;4941267;28;20033;-91
2023/04/24 20:38:21;;;;;;;20.23;17.65;;;16.20;99.90;;;;;;4957095;28;20038;-90
2023/04/24 20:40:51;;;;;;;19.92;17.80;;;16.20;99.90;;;;;;4941107;28;20027;-90
2023/04/24 20:43:17;;;;;;;19.90;17.90;;;16.20;99.90;;;;;;4941081;28;20499;-92
2023/04/24 20:45:43;;;;;;;20.90;18.67;;;16.20;99.90;;;;;;4941199;28;20043;-92
2023/04/24 20:48:11;;;;;;;21.80;18.92;;;16.10;99.90;;;;;;4941006;28;20027;-90
2023/04/24 20:50:41;;;;;;;20.63;18.45;;;16.10;99.90;;;;;;4967750;28;20046;-93
2023/04/24 20:53:08;;;;;;;23.33;17.83;;;16.00;99.90;;;;;;4960014;28;20027;-93
2023/04/24 20:55:37;;;;;;;22.15;17.67;;;16.00;99.90;;;;;;4976039;28;20486;-92
2023/04/24 20:58:03;;;;;;;20.00;17.88;;;15.90;99.90;;;;;;4960217;28;20073;-91
2023/04/24 21:00:33;;;;;;;19.50;17.45;;;15.90;99.90;;;;;;4960335;28;20352;-91
2023/04/24 21:02:59;;;;;;;19.85;17.85;;;15.80;99.90;;;;;;4975308;28;20105;-92
2023/04/24 21:05:26;;;;;;;19.27;17.77;;;15.80;99.90;;;;;;4959776;28;20027;-91
2023/04/24 21:07:54;;;;;;;19.45;17.58;;;15.70;99.90;;;;;;4976022;28;20162;-90
2023/04/24 21:10:23;;;;;;;18.67;17.20;;;15.70;99.90;;;;;;4959907;28;20506;-90
2023/04/24 21:12:50;;;;;;;18.60;16.92;;;15.70;99.90;;;;;;4976179;28;20037;-91
2023/04/24 21:15:17;;;;;;;18.42;16.95;;;15.70;99.90;;;;;;4959596;28;20149;-92
2023/04/24 21:17:44;;;;;;;19.52;17.15;;;15.70;99.90;;;;;;4975501;28;20498;-90
2023/04/24 21:20:11;;;;;;;18.20;16.63;;;15.70;99.90;;;;;;4959626;28;20030;-91
2023/04/24 21:22:37;;;;;;;17.73;16.63;;;15.70;99.90;;;;;;4975485;28;20034;-90
2023/04/24 21:25:04;;;;;;;17.13;16.10;;;15.70;99.90;;;;;;4958926;28;20037;-92
2023/04/24 21:27:30;;;;;;;17.55;16.02;;;15.70;99.90;;;;;;4940298;28;20065;-91
2023/04/24 21:29:57;;;;;;;16.83;15.60;;;15.80;99.90;;;;;;4956151;28;20087;-92
2023/04/24 21:32:23;;;;;;;16.83;15.75;;;15.80;99.90;;;;;;4939955;28;20433;-91
2023/04/24 21:34:50;;;;;;;17.83;16.48;;;15.80;99.90;;;;;;4942143;28;20066;-93
2023/04/24 21:37:16;;;;;;;17.70;16.50;;;15.80;99.90;;;;;;4940046;28;20102;-92
2023/04/24 21:39:42;;;;;;;17.85;16.42;;;15.80;99.90;;;;;;4956096;28;20377;-92
2023/04/24 21:42:09;;;;;;;18.73;17.25;;;15.80;99.90;;;;;;4940080;28;20154;-91
2023/04/24 21:44:35;;;;;;;20.80;18.55;;;15.70;99.90;;;;;;4955847;28;20480;-90
2023/04/24 21:47:02;;;;;;;19.20;17.60;;;15.70;99.90;;;;;;4935508;29;20039;-89
2023/04/24 21:49:28;;;;;;;19.75;17.75;;;15.70;99.90;;;;;;4955841;28;20035;-91
2023/04/24 21:51:54;;;;;;;18.23;16.67;;;15.60;99.90;;;;;;4939875;28;20481;-90
2023/04/24 21:54:21;;;;;;;18.10;16.70;;;15.60;99.90;;;;;;4939664;28;20039;-92
2023/04/24 21:56:47;;;;;;;18.05;16.67;;;15.60;99.90;;;;;;4955409;28;20114;-91
2023/04/24 21:59:14;;;;;;;17.90;16.60;;;15.60;99.90;;;;;;4939785;28;20037;-90
2023/04/24 22:01:40;;;;;;;18.30;16.92;;;15.50;99.90;;;;;;4956200;28;20033;-91
2023/04/24 22:04:06;;;;;;;18.67;17.17;;;15.40;99.90;;;;;;4939573;28;20038;-92
2023/04/24 22:06:33;;;;;;;18.13;16.75;;;15.30;99.90;;;;;;4955405;29;20034;-90
2023/04/24 22:09:00;;;;;;;18.45;17.02;;;15.20;99.90;;;;;;4955603;28;20037;-92
2023/04/24 22:11:26;;;;;;;18.23;16.67;;;15.10;99.90;;;;;;4957188;28;20050;-91
2023/04/24 22:13:54;;;;;;;18.02;16.50;;;15.10;99.90;;;;;;4959016;28;20042;-90
2023/04/24 22:16:28;;;;;;;18.10;16.67;;;15.20;99.90;;;;;;4975529;28;20034;-89
2023/04/24 22:18:54;;;;;;;18.85;17.02;;;15.20;99.90;;;;;;4960126;28;20030;-90
2023/04/24 23:17:49;;;;;;;18.17;16.52;;;14.70;99.90;;;;;;5120996;23;20055;-90
2023/04/24 23:20:16;;;;;;;18.33;16.63;;;14.70;99.90;;;;;;4958104;28;20042;-89
2023/04/24 23:22:45;;;;;;;18.15;16.67;;;14.70;99.90;;;;;;4958046;28;20480;-92
2023/04/24 23:25:11;;;;;;;17.95;16.42;;;14.60;99.90;;;;;;4974878;28;20023;-90
2023/04/24 23:27:38;;;;;;;18.77;17.08;;;14.60;99.90;;;;;;4961439;28;20038;-88
2023/04/24 23:30:05;;;;;;;18.80;17.05;;;14.70;99.90;;;;;;4958553;28;20476;-90
2023/04/24 23:32:32;;;;;;;18.50;16.63;;;14.70;99.90;;;;;;4960866;28;20035;-90
2023/04/24 23:34:58;;;;;;;19.23;17.40;;;14.60;99.90;;;;;;4993829;28;20039;-90
2023/04/24 23:37:24;;;;;;;20.15;17.17;;;14.60;99.90;;;;;;4993627;28;20097;-90
2023/04/24 23:39:51;;;;;;;19.50;17.50;;;14.70;99.90;;;;;;4993949;28;20027;-92
2023/04/24 23:42:18;;;;;;;18.35;16.70;;;14.70;99.90;;;;;;4977513;28;20034;-89
2023/04/24 23:44:44;;;;;;;18.35;16.75;;;14.70;99.90;;;;;;4993689;28;20498;-89
2023/04/24 23:47:11;;;;;;;18.02;16.73;;;14.70;99.90;;;;;;4994573;28;20030;-90
2023/04/24 23:49:37;;;;;;;18.33;16.98;;;14.70;99.90;;;;;;4993975;28;20027;-91
2023/04/24 23:52:04;;;;;;;18.77;17.38;;;14.70;99.90;;;;;;4977576;28;20111;-90
2023/04/24 23:54:33;;;;;;;18.83;17.05;;;14.70;99.90;;;;;;4993560;28;20487;-89
2023/04/24 23:57:01;;;;;;;18.60;17.10;;;14.80;99.90;;;;;;4995928;28;20035;-91
2023/04/24 23:59:27;;;;;;;19.13;17.35;;;14.80;99.90;;;;;;4959353;28;20043;-89
